Aviation Digital Data Service (ADDS)

Output produced by METARs form (0633 UTC 27 March 2017)
found at http://www.aviationweather.gov/adds/metars/
 
MYGF 270430Z 2706/2806 06007KT 9999 FEW020
       
MYNN 270430Z 2706/2806 04006KT 9999 FEW020